Time,TemperatureF,DewpointF,PressureIn,WindDirection,WindDirectionDegrees,WindSpeedMPH,WindSpeedGustMPH,Humidity,HourlyPrecipIn,Conditions,Clouds,dailyrainin,SoftwareType,DateUTC
2013-02-21 00:00:00,34.4,17.0,30.05,NNE,17,0.0,12.1,48,0.00,,CLR,0.00,VWS V14.00,2013-02-21 05:00:00,
2013-02-21 00:05:00,33.7,16.4,30.05,NNE,21,3.2,12.1,49,0.00,,CLR,0.00,VWS V14.00,2013-02-21 05:05:00,
2013-02-21 00:10:00,33.8,16.7,30.05,North,354,0.0,12.1,49,0.00,,CLR,0.00,VWS V14.00,2013-02-21 05:10:00,
2013-02-21 00:15:00,33.3,16.5,30.05,North,359,0.0,12.1,50,0.00,,CLR,0.00,VWS V14.00,2013-02-21 05:15:00,
2013-02-21 00:20:00,32.8,16.3,30.05,North,4,3.0,12.1,50,0.00,,CLR,0.00,VWS V14.00,2013-02-21 05:20:00,
2013-02-21 00:25:00,32.1,16.2,30.05,NNE,31,4.7,12.1,52,0.00,,CLR,0.00,VWS V14.00,2013-02-21 05:25:00,
2013-02-21 00:30:00,31.9,16.1,30.05,NE,49,3.5,12.1,52,0.00,,CLR,0.00,VWS V14.00,2013-02-21 05:30:00,
2013-02-21 00:35:00,31.6,15.8,30.05,NNE,31,6.0,12.1,52,0.00,,CLR,0.00,VWS V14.00,2013-02-21 05:35:00,
2013-02-21 00:40:00,31.8,16.5,30.05,NNE,15,7.1,12.1,53,0.00,,CLR,0.00,VWS V14.00,2013-02-21 05:40:00,
2013-02-21 00:45:00,31.0,15.8,30.05,ENE,60,0.0,12.1,53,0.00,,CLR,0.00,VWS V14.00,2013-02-21 05:45:00,
2013-02-21 00:50:00,31.6,16.7,30.05,NNE,18,0.0,12.1,54,0.00,,CLR,0.00,VWS V14.00,2013-02-21 05:50:00,
2013-02-21 00:55:00,31.6,16.7,30.05,North,354,0.0,12.1,54,0.00,,CLR,0.00,VWS V14.00,2013-02-21 05:55:00,
2013-02-21 01:00:00,30.9,16.2,30.05,North,354,0.0,12.1,54,0.00,,CLR,0.00,VWS V14.00,2013-02-21 06:00:00,
2013-02-21 01:05:00,30.9,16.4,30.06,North,352,0.0,12.1,54,0.00,,CLR,0.00,VWS V14.00,2013-02-21 06:05:00,
2013-02-21 01:11:00,30.2,15.8,30.06,North,352,0.0,12.1,54,0.00,,CLR,0.00,VWS V14.00,2013-02-21 06:11:00,
2013-02-21 01:16:00,30.0,15.9,30.05,NNE,31,0.0,12.1,55,0.00,,CLR,0.00,VWS V14.00,2013-02-21 06:16:00,
2013-02-21 01:21:00,29.9,16.2,30.04,NE,41,0.0,12.1,56,0.00,,CLR,0.00,VWS V14.00,2013-02-21 06:21:00,
2013-02-21 01:26:00,30.3,16.7,30.04,NNE,30,0.0,12.1,56,0.00,,CLR,0.00,VWS V14.00,2013-02-21 06:26:00,
2013-02-21 01:31:00,30.3,16.9,30.04,NNE,30,0.0,12.1,57,0.00,,CLR,0.00,VWS V14.00,2013-02-21 06:31:00,
2013-02-21 01:36:00,29.7,16.4,30.05,NNE,30,0.0,12.1,57,0.00,,CLR,0.00,VWS V14.00,2013-02-21 06:36:00,
2013-02-21 01:41:00,29.6,16.4,30.05,NNE,21,0.0,12.1,57,0.00,,CLR,0.00,VWS V14.00,2013-02-21 06:41:00,
2013-02-21 01:46:00,29.2,16.2,30.05,NE,37,0.0,12.1,58,0.00,,CLR,0.00,VWS V14.00,2013-02-21 06:46:00,
2013-02-21 01:51:00,29.4,16.7,30.05,NE,37,0.0,12.1,59,0.00,,CLR,0.00,VWS V14.00,2013-02-21 06:51:00,
2013-02-21 01:56:00,29.0,16.7,30.05,NE,37,0.0,12.1,60,0.00,,CLR,0.00,VWS V14.00,2013-02-21 06:56:00,
2013-02-21 02:01:00,28.4,16.4,30.05,NNE,14,0.0,12.1,60,0.00,,CLR,0.00,VWS V14.00,2013-02-21 07:01:00,
2013-02-21 02:06:00,28.3,16.4,30.05,NNE,14,0.0,12.1,61,0.00,,CLR,0.00,VWS V14.00,2013-02-21 07:06:00,
2013-02-21 02:11:00,28.4,16.4,30.05,NNE,14,0.0,12.1,60,0.00,,CLR,0.00,VWS V14.00,2013-02-21 07:11:00,
2013-02-21 02:16:00,28.7,16.6,30.05,NNE,14,0.0,12.1,60,0.00,,CLR,0.00,VWS V14.00,2013-02-21 07:16:00,
2013-02-21 02:21:00,28.0,16.2,30.05,NNE,14,0.0,12.1,61,0.00,,CLR,0.00,VWS V14.00,2013-02-21 07:21:00,
2013-02-21 02:26:00,27.9,16.2,30.05,NNE,14,0.0,12.1,61,0.00,,CLR,0.00,VWS V14.00,2013-02-21 07:26:00,
2013-02-21 02:31:00,28.4,16.7,30.05,NNE,14,0.0,12.1,61,0.00,,CLR,0.00,VWS V14.00,2013-02-21 07:31:00,
2013-02-21 02:36:00,28.0,16.3,30.06,NNE,14,0.0,12.1,61,0.00,,CLR,0.00,VWS V14.00,2013-02-21 07:36:00,
2013-02-21 02:41:00,28.2,16.6,30.06,NNE,14,0.0,12.1,61,0.00,,CLR,0.00,VWS V14.00,2013-02-21 07:41:00,
2013-02-21 02:46:00,27.9,16.7,30.07,NNE,14,0.0,12.1,62,0.00,,CLR,0.00,VWS V14.00,2013-02-21 07:46:00,
2013-02-21 02:51:00,28.3,17.2,30.07,NNE,14,0.0,12.1,63,0.00,,CLR,0.00,VWS V14.00,2013-02-21 07:51:00,
2013-02-21 02:56:00,27.7,16.8,30.06,NNE,14,0.0,12.1,63,0.00,,CLR,0.00,VWS V14.00,2013-02-21 07:56:00,
2013-02-21 03:01:00,27.7,17.0,30.07,NNE,14,0.0,12.1,64,0.00,,CLR,0.00,VWS V14.00,2013-02-21 08:01:00,
2013-02-21 03:06:00,27.4,16.8,30.07,NNE,14,0.0,12.1,64,0.00,,CLR,0.00,VWS V14.00,2013-02-21 08:06:00,
2013-02-21 03:11:00,27.6,17.3,30.07,NNE,14,0.0,12.1,65,0.00,,CLR,0.00,VWS V14.00,2013-02-21 08:11:00,
2013-02-21 03:16:00,28.2,18.2,30.07,NNE,14,0.0,12.1,66,0.00,,CLR,0.00,VWS V14.00,2013-02-21 08:16:00,
2013-02-21 03:21:00,27.7,17.9,30.07,NNE,14,0.0,12.1,66,0.00,,CLR,0.00,VWS V14.00,2013-02-21 08:21:00,
2013-02-21 03:26:00,27.2,17.4,30.07,NNE,14,0.0,12.1,66,0.00,,CLR,0.00,VWS V14.00,2013-02-21 08:26:00,
2013-02-21 03:31:00,27.2,17.5,30.07,NNE,14,0.0,12.1,66,0.00,,CLR,0.00,VWS V14.00,2013-02-21 08:31:00,
2013-02-21 03:36:00,27.2,17.7,30.06,NNE,14,0.0,12.1,67,0.00,,CLR,0.00,VWS V14.00,2013-02-21 08:36:00,
2013-02-21 03:41:00,27.1,18.1,30.06,NNE,14,0.0,12.1,68,0.00,,CLR,0.00,VWS V14.00,2013-02-21 08:41:00,
2013-02-21 03:46:00,27.0,18.3,30.06,NNE,14,0.0,12.1,69,0.00,,CLR,0.00,VWS V14.00,2013-02-21 08:46:00,
2013-02-21 03:51:00,27.1,18.5,30.06,NNE,14,0.0,12.1,70,0.00,,CLR,0.00,VWS V14.00,2013-02-21 08:51:00,
2013-02-21 03:56:00,27.2,18.5,30.06,NNE,14,0.0,12.1,69,0.00,,CLR,0.00,VWS V14.00,2013-02-21 08:56:00,
2013-02-21 04:01:00,27.2,18.5,30.06,NNE,14,0.0,12.1,69,0.00,,CLR,0.00,VWS V14.00,2013-02-21 09:01:00,
2013-02-21 04:06:00,27.3,18.9,30.07,NNE,14,0.0,12.1,70,0.00,,CLR,0.00,VWS V14.00,2013-02-21 09:06:00,
2013-02-21 04:12:00,27.1,18.8,30.07,NNE,14,0.0,12.1,71,0.00,,CLR,0.00,VWS V14.00,2013-02-21 09:12:00,
2013-02-21 04:17:00,27.2,18.9,30.07,NNE,14,0.0,12.1,70,0.00,,CLR,0.00,VWS V14.00,2013-02-21 09:17:00,
2013-02-21 04:22:00,26.9,19.0,30.07,NNE,14,0.0,12.1,72,0.00,,CLR,0.00,VWS V14.00,2013-02-21 09:22:00,
2013-02-21 04:27:00,27.2,19.2,30.07,NNE,14,0.0,12.1,72,0.00,,CLR,0.00,VWS V14.00,2013-02-21 09:27:00,
2013-02-21 04:32:00,27.0,19.2,30.07,NNE,14,0.0,12.1,72,0.00,,CLR,0.00,VWS V14.00,2013-02-21 09:32:00,
2013-02-21 04:37:00,27.1,19.5,30.07,NNE,14,0.0,12.1,73,0.00,,CLR,0.00,VWS V14.00,2013-02-21 09:37:00,
2013-02-21 04:42:00,26.7,19.5,30.07,NNE,14,0.0,12.1,74,0.00,,CLR,0.00,VWS V14.00,2013-02-21 09:42:00,
2013-02-21 04:47:00,26.8,19.6,30.07,NNE,14,0.0,12.1,74,0.00,,CLR,0.00,VWS V14.00,2013-02-21 09:47:00,
2013-02-21 04:52:00,26.7,19.5,30.07,NNE,14,0.0,12.1,74,0.00,,CLR,0.00,VWS V14.00,2013-02-21 09:52:00,
2013-02-21 04:57:00,26.6,19.7,30.07,NNE,14,0.0,12.1,75,0.00,,CLR,0.00,VWS V14.00,2013-02-21 09:57:00,
2013-02-21 05:02:00,26.4,19.8,30.08,NNE,14,0.0,12.1,76,0.00,,CLR,0.00,VWS V14.00,2013-02-21 10:02:00,
2013-02-21 05:07:00,26.3,19.8,30.07,NNE,14,0.0,12.1,76,0.00,,CLR,0.00,VWS V14.00,2013-02-21 10:07:00,
2013-02-21 05:12:00,26.3,19.9,30.08,NNE,14,0.0,12.1,76,0.00,,CLR,0.00,VWS V14.00,2013-02-21 10:12:00,
2013-02-21 05:17:00,26.3,19.7,30.08,NNE,14,0.0,12.1,76,0.00,,CLR,0.00,VWS V14.00,2013-02-21 10:17:00,
2013-02-21 05:22:00,26.4,19.7,30.08,NNE,14,0.0,12.1,75,0.00,,CLR,0.00,VWS V14.00,2013-02-21 10:22:00,
2013-02-21 05:27:00,26.5,19.6,30.08,NNE,14,0.0,12.1,75,0.00,,CLR,0.00,VWS V14.00,2013-02-21 10:27:00,
2013-02-21 05:32:00,26.5,19.4,30.09,NNE,14,0.0,12.1,74,0.00,,CLR,0.00,VWS V14.00,2013-02-21 10:32:00,
2013-02-21 05:37:00,26.6,19.4,30.09,NNE,14,0.0,12.1,74,0.00,,CLR,0.00,VWS V14.00,2013-02-21 10:37:00,
2013-02-21 05:42:00,26.5,19.3,30.09,NNE,14,0.0,12.1,74,0.00,,CLR,0.00,VWS V14.00,2013-02-21 10:42:00,
2013-02-21 05:47:00,26.3,19.2,30.09,NNE,14,0.0,12.1,74,0.00,,CLR,0.00,VWS V14.00,2013-02-21 10:47:00,
2013-02-21 05:52:00,26.2,19.2,30.10,NNE,14,0.0,12.1,74,0.00,,CLR,0.00,VWS V14.00,2013-02-21 10:52:00,
2013-02-21 05:57:00,25.9,19.2,30.10,NNE,14,0.0,12.1,75,0.00,,CLR,0.00,VWS V14.00,2013-02-21 10:57:00,
2013-02-21 06:02:00,25.8,19.3,30.10,NNE,14,0.0,12.1,76,0.00,,CLR,0.00,VWS V14.00,2013-02-21 11:02:00,
2013-02-21 06:07:00,25.7,19.8,30.10,NNE,14,0.0,12.1,78,0.00,,CLR,0.00,VWS V14.00,2013-02-21 11:07:00,
2013-02-21 06:12:00,25.8,20.4,30.10,NNE,14,0.0,12.1,80,0.00,,CLR,0.00,VWS V14.00,2013-02-21 11:12:00,
2013-02-21 06:17:00,25.8,21.1,30.10,NNE,14,0.0,12.1,82,0.00,,CLR,0.00,VWS V14.00,2013-02-21 11:17:00,
2013-02-21 06:22:00,25.7,21.0,30.10,NNE,14,0.0,12.1,82,0.00,,CLR,0.00,VWS V14.00,2013-02-21 11:22:00,
2013-02-21 06:27:00,25.6,21.2,30.10,NNE,14,0.0,12.1,83,0.00,,CLR,0.00,VWS V14.00,2013-02-21 11:27:00,
2013-02-21 06:32:00,25.6,21.2,30.10,NNE,14,0.0,12.1,83,0.00,,CLR,0.00,VWS V14.00,2013-02-21 11:32:00,
2013-02-21 06:37:00,25.6,21.2,30.10,NNE,14,0.0,12.1,83,0.00,,CLR,0.00,VWS V14.00,2013-02-21 11:37:00,
2013-02-21 06:42:00,25.3,20.7,30.11,NNE,14,0.0,12.1,82,0.00,,CLR,0.00,VWS V14.00,2013-02-21 11:42:00,
2013-02-21 06:47:00,25.5,20.7,30.11,NNE,14,0.0,12.1,82,0.00,,CLR,0.00,VWS V14.00,2013-02-21 11:47:00,
2013-02-21 06:52:00,25.7,20.8,30.11,NNE,14,0.0,12.1,82,0.00,,CLR,0.00,VWS V14.00,2013-02-21 11:52:00,
2013-02-21 06:57:00,25.7,21.1,30.11,NNE,14,0.0,12.1,82,0.00,,CLR,0.00,VWS V14.00,2013-02-21 11:57:00,
2013-02-21 07:02:00,25.6,21.0,30.11,NNE,14,0.0,12.1,82,0.00,,CLR,0.00,VWS V14.00,2013-02-21 12:02:00,
2013-02-21 07:07:00,25.7,21.3,30.11,NNE,14,0.0,12.1,83,0.00,,CLR,0.00,VWS V14.00,2013-02-21 12:07:00,
2013-02-21 07:12:00,25.4,21.2,30.11,NNE,14,0.0,12.1,84,0.00,,CLR,0.00,VWS V14.00,2013-02-21 12:12:00,
2013-02-21 07:17:00,25.3,21.4,30.11,NNE,14,0.0,12.1,85,0.00,,CLR,0.00,VWS V14.00,2013-02-21 12:17:00,
2013-02-21 07:22:00,25.2,21.4,30.12,NNE,14,0.0,12.1,85,0.00,,CLR,0.00,VWS V14.00,2013-02-21 12:22:00,
2013-02-21 07:27:00,25.4,21.7,30.12,NNE,14,0.0,12.1,86,0.00,,CLR,0.00,VWS V14.00,2013-02-21 12:27:00,
2013-02-21 07:32:00,25.6,21.4,30.12,NNE,14,0.0,12.1,84,0.00,,CLR,0.00,VWS V14.00,2013-02-21 12:32:00,
2013-02-21 07:37:00,25.5,21.1,30.12,NNE,14,0.0,12.1,83,0.00,,CLR,0.00,VWS V14.00,2013-02-21 12:37:00,
2013-02-21 07:42:00,25.8,21.2,30.12,NNE,14,0.0,12.1,83,0.00,,CLR,0.00,VWS V14.00,2013-02-21 12:42:00,
2013-02-21 07:47:00,26.4,21.3,30.12,NNE,14,0.0,12.1,81,0.00,,CLR,0.00,VWS V14.00,2013-02-21 12:47:00,
2013-02-21 07:52:00,26.9,21.3,30.12,NNE,14,0.0,12.1,79,0.00,,CLR,0.00,VWS V14.00,2013-02-21 12:52:00,
2013-02-21 07:57:00,27.1,21.1,30.13,NNE,14,0.0,12.1,78,0.00,,CLR,0.00,VWS V14.00,2013-02-21 12:57:00,
2013-02-21 08:03:00,27.2,21.0,30.12,NNE,14,0.0,12.1,77,0.00,,CLR,0.00,VWS V14.00,2013-02-21 13:03:00,
2013-02-21 08:08:00,27.4,20.9,30.13,NNE,14,0.0,12.1,76,0.00,,CLR,0.00,VWS V14.00,2013-02-21 13:08:00,
2013-02-21 08:13:00,27.6,20.9,30.13,NNE,14,0.0,12.1,76,0.00,,CLR,0.00,VWS V14.00,2013-02-21 13:13:00,
2013-02-21 08:18:00,28.5,21.4,30.13,NNE,14,0.0,12.1,74,0.00,,CLR,0.00,VWS V14.00,2013-02-21 13:18:00,
2013-02-21 08:23:00,29.1,21.5,30.13,North,11,0.0,12.1,73,0.00,,CLR,0.00,VWS V14.00,2013-02-21 13:23:00,
2013-02-21 08:28:00,29.2,21.0,30.13,North,11,0.0,12.1,71,0.00,,CLR,0.00,VWS V14.00,2013-02-21 13:28:00,
2013-02-21 08:33:00,30.1,21.0,30.13,North,11,0.0,12.1,69,0.00,,CLR,0.00,VWS V14.00,2013-02-21 13:33:00,
2013-02-21 08:38:00,29.1,19.9,30.13,North,11,0.0,12.1,68,0.00,,CLR,0.00,VWS V14.00,2013-02-21 13:38:00,
2013-02-21 08:43:00,28.3,18.2,30.13,NW,321,0.0,12.1,65,0.00,,CLR,0.00,VWS V14.00,2013-02-21 13:43:00,
2013-02-21 08:48:00,29.5,18.9,30.13,North,0,0.0,12.1,64,0.00,,CLR,0.00,VWS V14.00,2013-02-21 13:48:00,
2013-02-21 08:53:00,28.9,17.5,30.13,NNW,345,6.3,12.1,62,0.00,,CLR,0.00,VWS V14.00,2013-02-21 13:53:00,
2013-02-21 08:58:00,28.5,16.4,30.14,NNW,332,0.0,12.1,60,0.00,,CLR,0.00,VWS V14.00,2013-02-21 13:58:00,
2013-02-21 09:03:00,30.1,17.8,30.14,NNE,18,3.4,12.1,60,0.00,,CLR,0.00,VWS V14.00,2013-02-21 14:03:00,
2013-02-21 09:08:00,31.4,18.9,30.14,NNE,24,0.0,12.1,59,0.00,,CLR,0.00,VWS V14.00,2013-02-21 14:08:00,
2013-02-21 09:13:00,31.5,18.2,30.14,NNW,343,4.6,12.1,57,0.00,,CLR,0.00,VWS V14.00,2013-02-21 14:13:00,
2013-02-21 09:18:00,31.5,17.7,30.14,NW,318,4.9,12.1,56,0.00,,CLR,0.00,VWS V14.00,2013-02-21 14:18:00,
2013-02-21 09:23:00,31.5,17.3,30.14,NNW,339,0.0,12.1,55,0.00,,CLR,0.00,VWS V14.00,2013-02-21 14:23:00,
2013-02-21 09:28:00,31.9,17.5,30.14,NNW,346,7.5,12.1,55,0.00,,CLR,0.00,VWS V14.00,2013-02-21 14:28:00,
2013-02-21 09:33:00,32.7,17.9,30.14,NNE,28,3.4,12.1,54,0.00,,CLR,0.00,VWS V14.00,2013-02-21 14:33:00,
2013-02-21 09:38:00,33.1,18.4,30.14,NNE,18,3.3,12.1,54,0.00,,CLR,0.00,VWS V14.00,2013-02-21 14:38:00,
2013-02-21 09:43:00,32.9,18.0,30.14,NE,37,0.0,12.1,54,0.00,,CLR,0.00,VWS V14.00,2013-02-21 14:43:00,
2013-02-21 09:48:00,35.4,19.9,30.14,NNE,24,2.9,12.1,53,0.00,,CLR,0.00,VWS V14.00,2013-02-21 14:48:00,
2013-02-21 09:53:00,35.9,19.8,30.13,North,349,0.0,12.1,52,0.00,,CLR,0.00,VWS V14.00,2013-02-21 14:53:00,
2013-02-21 09:58:00,36.1,20.1,30.14,NE,48,0.0,12.1,52,0.00,,CLR,0.00,VWS V14.00,2013-02-21 14:58:00,
2013-02-21 10:03:00,36.6,20.3,30.13,NE,48,0.0,12.1,51,0.00,,CLR,0.00,VWS V14.00,2013-02-21 15:03:00,
2013-02-21 10:08:00,36.6,19.5,30.14,NNW,343,0.0,12.1,50,0.00,,CLR,0.00,VWS V14.00,2013-02-21 15:08:00,
2013-02-21 10:13:00,36.7,19.6,30.14,North,11,3.3,12.1,50,0.00,,CLR,0.00,VWS V14.00,2013-02-21 15:13:00,
2013-02-21 10:18:00,36.4,19.4,30.13,NNW,339,3.5,12.1,50,0.00,,CLR,0.00,VWS V14.00,2013-02-21 15:18:00,
2013-02-21 10:23:00,36.8,19.3,30.14,NNW,328,7.1,12.1,49,0.00,,CLR,0.00,VWS V14.00,2013-02-21 15:23:00,
2013-02-21 10:29:00,36.7,19.5,30.14,WNW,302,0.0,12.1,49,0.00,,CLR,0.00,VWS V14.00,2013-02-21 15:29:00,
2013-02-21 10:34:00,37.2,19.5,30.14,WNW,302,0.0,12.1,48,0.00,,CLR,0.00,VWS V14.00,2013-02-21 15:34:00,
2013-02-21 10:39:00,37.4,19.6,30.13,ENE,59,0.0,12.1,48,0.00,,CLR,0.00,VWS V14.00,2013-02-21 15:39:00,
2013-02-21 10:44:00,38.7,20.4,30.13,NW,315,0.0,12.1,47,0.00,,CLR,0.00,VWS V14.00,2013-02-21 15:44:00,
2013-02-21 10:49:00,39.4,21.0,30.13,North,11,0.0,12.1,47,0.00,,CLR,0.00,VWS V14.00,2013-02-21 15:49:00,
2013-02-21 10:54:00,39.6,21.0,30.13,North,8,0.0,12.1,47,0.00,,CLR,0.00,VWS V14.00,2013-02-21 15:54:00,
2013-02-21 10:59:00,39.5,20.4,30.13,NW,305,0.0,12.1,46,0.00,,CLR,0.00,VWS V14.00,2013-02-21 15:59:00,
2013-02-21 11:04:00,39.3,19.9,30.13,NNE,32,6.6,12.1,45,0.00,,CLR,0.00,VWS V14.00,2013-02-21 16:04:00,
2013-02-21 11:09:00,39.8,20.1,30.13,NW,314,0.0,12.1,45,0.00,,CLR,0.00,VWS V14.00,2013-02-21 16:09:00,
2013-02-21 11:14:00,40.4,20.2,30.13,North,356,0.0,12.1,44,0.00,,CLR,0.00,VWS V14.00,2013-02-21 16:14:00,
2013-02-21 11:19:00,41.0,20.7,30.13,NNE,28,0.0,12.1,44,0.00,,CLR,0.00,VWS V14.00,2013-02-21 16:19:00,
2013-02-21 11:24:00,42.2,21.4,30.13,NNE,27,0.0,12.1,43,0.00,,CLR,0.00,VWS V14.00,2013-02-21 16:24:00,
2013-02-21 11:29:00,42.4,21.1,30.13,NNW,339,7.2,12.1,42,0.00,,CLR,0.00,VWS V14.00,2013-02-21 16:29:00,
2013-02-21 11:34:00,42.5,21.0,30.13,NNE,21,0.0,12.1,42,0.00,,CLR,0.00,VWS V14.00,2013-02-21 16:34:00,
2013-02-21 11:39:00,42.9,21.5,30.13,NNE,14,5.2,12.1,42,0.00,,CLR,0.00,VWS V14.00,2013-02-21 16:39:00,
2013-02-21 11:44:00,43.0,21.5,30.13,NNE,13,0.0,12.1,42,0.00,,CLR,0.00,VWS V14.00,2013-02-21 16:44:00,
2013-02-21 11:49:00,42.7,20.8,30.12,NNE,28,0.0,12.1,41,0.00,,CLR,0.00,VWS V14.00,2013-02-21 16:49:00,
2013-02-21 11:54:00,43.5,21.0,30.12,NNW,335,0.0,12.1,40,0.00,,CLR,0.00,VWS V14.00,2013-02-21 16:54:00,
2013-02-21 11:59:00,44.1,21.0,30.12,NNW,329,6.8,12.1,39,0.00,,CLR,0.00,VWS V14.00,2013-02-21 16:59:00,
2013-02-21 12:04:00,44.2,21.0,30.12,NNE,28,0.0,12.1,39,0.00,,CLR,0.00,VWS V14.00,2013-02-21 17:04:00,
2013-02-21 12:09:00,44.0,20.4,30.12,NNW,339,4.7,12.1,38,0.00,,CLR,0.00,VWS V14.00,2013-02-21 17:09:00,
2013-02-21 12:14:00,44.4,20.5,30.11,NNE,15,6.3,12.1,38,0.00,,CLR,0.00,VWS V14.00,2013-02-21 17:14:00,
2013-02-21 12:19:00,45.7,21.2,30.11,WNW,283,3.4,12.1,37,0.00,,CLR,0.00,VWS V14.00,2013-02-21 17:19:00,
2013-02-21 12:24:00,46.1,22.1,30.10,North,359,0.0,12.1,38,0.00,,CLR,0.00,VWS V14.00,2013-02-21 17:24:00,
2013-02-21 12:29:00,46.1,21.3,30.10,North,359,6.3,12.1,37,0.00,,CLR,0.00,VWS V14.00,2013-02-21 17:29:00,
2013-02-21 12:34:00,45.6,21.0,30.10,North,0,0.0,12.1,37,0.00,,CLR,0.00,VWS V14.00,2013-02-21 17:34:00,
2013-02-21 12:39:00,44.9,19.7,30.10,ENE,69,0.0,12.1,36,0.00,,CLR,0.00,VWS V14.00,2013-02-21 17:39:00,
2013-02-21 12:44:00,46.0,20.2,30.09,SE,127,0.0,12.1,35,0.00,,CLR,0.00,VWS V14.00,2013-02-21 17:44:00,
2013-02-21 12:49:00,47.2,21.9,30.09,NE,35,8.0,12.1,36,0.00,,CLR,0.00,VWS V14.00,2013-02-21 17:49:00,
2013-02-21 12:54:00,45.7,19.0,30.09,NNE,32,4.3,12.1,34,0.00,,CLR,0.00,VWS V14.00,2013-02-21 17:54:00,
2013-02-21 12:59:00,44.7,18.1,30.09,ENE,60,0.0,12.1,34,0.00,,CLR,0.00,VWS V14.00,2013-02-21 17:59:00,
2013-02-21 13:04:00,43.4,16.6,30.08,North,10,8.3,12.1,34,0.00,,CLR,0.00,VWS V14.00,2013-02-21 18:04:00,
2013-02-21 13:09:00,46.2,19.5,30.08,NNW,335,6.1,12.1,34,0.00,,CLR,0.00,VWS V14.00,2013-02-21 18:09:00,
2013-02-21 13:14:00,45.9,18.5,30.08,NW,325,8.3,12.1,33,0.00,,CLR,0.00,VWS V14.00,2013-02-21 18:14:00,
2013-02-21 13:19:00,45.0,17.1,30.08,North,7,0.0,12.1,32,0.00,,CLR,0.00,VWS V14.00,2013-02-21 18:19:00,
2013-02-21 13:24:00,46.2,19.7,30.08,NNE,20,4.4,12.1,34,0.00,,CLR,0.00,VWS V14.00,2013-02-21 18:24:00,
2013-02-21 13:29:00,47.6,19.5,30.07,North,350,4.1,12.1,32,0.00,,CLR,0.00,VWS V14.00,2013-02-21 18:29:00,
2013-02-21 13:34:00,47.9,21.2,30.06,NNE,32,0.0,12.1,34,0.00,,CLR,0.00,VWS V14.00,2013-02-21 18:34:00,
2013-02-21 13:40:00,47.9,20.5,30.06,North,4,6.8,12.1,34,0.00,,CLR,0.00,VWS V14.00,2013-02-21 18:40:00,
2013-02-21 13:45:00,49.0,21.7,30.06,NE,39,0.0,12.1,34,0.00,,CLR,0.00,VWS V14.00,2013-02-21 18:45:00,
2013-02-21 13:50:00,49.4,21.3,30.06,ENE,69,0.0,12.1,33,0.00,,CLR,0.00,VWS V14.00,2013-02-21 18:50:00,
2013-02-21 13:55:00,49.3,20.3,30.06,ESE,122,0.0,12.1,32,0.00,,CLR,0.00,VWS V14.00,2013-02-21 18:55:00,
2013-02-21 14:00:00,49.4,21.3,30.06,ENE,66,2.7,12.1,33,0.00,,CLR,0.00,VWS V14.00,2013-02-21 19:00:00,
2013-02-21 14:05:00,49.8,21.7,30.06,NNE,25,4.3,12.1,33,0.00,,CLR,0.00,VWS V14.00,2013-02-21 19:05:00,
2013-02-21 14:10:00,49.8,20.9,30.06,ENE,76,0.0,12.1,32,0.00,,CLR,0.00,VWS V14.00,2013-02-21 19:10:00,
2013-02-21 14:15:00,49.8,20.8,30.05,NNE,30,0.0,12.1,32,0.00,,CLR,0.00,VWS V14.00,2013-02-21 19:15:00,
2013-02-21 14:20:00,49.8,20.5,30.05,ESE,105,0.0,12.1,31,0.00,,CLR,0.00,VWS V14.00,2013-02-21 19:20:00,
2013-02-21 14:25:00,49.7,21.3,30.05,North,11,8.5,12.1,32,0.00,,CLR,0.00,VWS V14.00,2013-02-21 19:25:00,
2013-02-21 14:30:00,49.5,20.8,30.05,NNE,25,5.5,12.1,32,0.00,,CLR,0.00,VWS V14.00,2013-02-21 19:30:00,
2013-02-21 14:35:00,49.6,21.2,30.04,North,1,5.2,12.1,32,0.00,,CLR,0.00,VWS V14.00,2013-02-21 19:35:00,
2013-02-21 14:40:00,49.6,21.5,30.05,North,3,0.0,12.1,33,0.00,,CLR,0.00,VWS V14.00,2013-02-21 19:40:00,
2013-02-21 14:45:00,49.8,20.7,30.05,North,3,0.0,12.1,31,0.00,,CLR,0.00,VWS V14.00,2013-02-21 19:45:00,
2013-02-21 14:50:00,49.5,20.8,30.05,NE,51,8.1,12.1,32,0.00,,CLR,0.00,VWS V14.00,2013-02-21 19:50:00,
2013-02-21 14:55:00,49.7,21.1,30.05,ENE,60,0.0,12.1,32,0.00,,CLR,0.00,VWS V14.00,2013-02-21 19:55:00,
2013-02-21 15:00:00,49.8,20.7,30.05,East,90,7.5,12.1,31,0.00,,CLR,0.00,VWS V14.00,2013-02-21 20:00:00,
2013-02-21 15:05:00,49.8,21.4,30.05,NE,41,0.0,12.1,32,0.00,,CLR,0.00,VWS V14.00,2013-02-21 20:05:00,
2013-02-21 15:10:00,50.2,20.6,30.05,ESE,118,6.4,12.1,31,0.00,,CLR,0.00,VWS V14.00,2013-02-21 20:10:00,
2013-02-21 15:15:00,48.8,19.4,30.05,ESE,121,0.0,12.1,31,0.00,,CLR,0.00,VWS V14.00,2013-02-21 20:15:00,
2013-02-21 15:20:00,46.2,17.4,30.05,North,7,2.9,12.1,31,0.00,,CLR,0.00,VWS V14.00,2013-02-21 20:20:00,
2013-02-21 15:25:00,49.4,19.9,30.05,NNE,25,0.0,12.1,31,0.00,,CLR,0.00,VWS V14.00,2013-02-21 20:25:00,
2013-02-21 15:30:00,49.9,20.3,30.05,NNE,25,0.0,12.1,31,0.00,,CLR,0.00,VWS V14.00,2013-02-21 20:30:00,
2013-02-21 15:35:00,50.4,20.3,30.05,ESE,112,0.0,12.1,30,0.00,,CLR,0.00,VWS V14.00,2013-02-21 20:35:00,
2013-02-21 15:40:00,49.2,19.6,30.05,North,359,0.0,12.1,31,0.00,,CLR,0.00,VWS V14.00,2013-02-21 20:40:00,
2013-02-21 15:45:00,50.0,20.9,30.05,NNE,13,0.0,12.1,31,0.00,,CLR,0.00,VWS V14.00,2013-02-21 20:45:00,
2013-02-21 15:50:00,50.3,20.8,30.05,WNW,290,0.0,12.1,31,0.00,,CLR,0.00,VWS V14.00,2013-02-21 20:50:00,
2013-02-21 15:55:00,50.6,21.2,30.05,WNW,290,0.0,12.1,31,0.00,,CLR,0.00,VWS V14.00,2013-02-21 20:55:00,
2013-02-21 16:00:00,50.7,20.2,30.05,WNW,290,0.0,12.1,30,0.00,,CLR,0.00,VWS V14.00,2013-02-21 21:00:00,
2013-02-21 16:05:00,50.8,20.7,30.06,WNW,290,0.0,12.1,30,0.00,,CLR,0.00,VWS V14.00,2013-02-21 21:05:00,
2013-02-21 16:10:00,51.1,20.9,30.06,WNW,290,0.0,12.1,30,0.00,,CLR,0.00,VWS V14.00,2013-02-21 21:10:00,
2013-02-21 16:15:00,51.0,20.4,30.05,NE,37,0.0,12.1,30,0.00,,CLR,0.00,VWS V14.00,2013-02-21 21:15:00,
2013-02-21 16:20:00,50.9,19.8,30.06,NE,37,0.0,12.1,29,0.00,,CLR,0.00,VWS V14.00,2013-02-21 21:20:00,
2013-02-21 16:25:00,50.8,20.5,30.06,NE,38,0.0,12.1,30,0.00,,CLR,0.00,VWS V14.00,2013-02-21 21:25:00,
2013-02-21 16:30:00,50.7,20.2,30.06,NE,38,0.0,12.1,30,0.00,,CLR,0.00,VWS V14.00,2013-02-21 21:30:00,
2013-02-21 16:35:00,50.7,20.0,30.06,NE,38,0.0,12.1,30,0.00,,CLR,0.00,VWS V14.00,2013-02-21 21:35:00,
2013-02-21 16:40:00,50.8,20.5,30.06,NE,38,0.0,12.1,30,0.00,,CLR,0.00,VWS V14.00,2013-02-21 21:40:00,
2013-02-21 16:45:00,50.8,20.3,30.06,NE,38,0.0,12.1,30,0.00,,CLR,0.00,VWS V14.00,2013-02-21 21:45:00,
2013-02-21 16:50:00,51.2,20.2,30.06,North,11,0.0,12.1,29,0.00,,CLR,0.00,VWS V14.00,2013-02-21 21:50:00,
2013-02-21 16:55:00,51.2,20.7,30.07,North,11,0.0,12.1,30,0.00,,CLR,0.00,VWS V14.00,2013-02-21 21:55:00,
2013-02-21 17:00:00,51.0,20.6,30.07,North,11,0.0,12.1,30,0.00,,CLR,0.00,VWS V14.00,2013-02-21 22:00:00,
2013-02-21 17:06:00,50.8,20.3,30.06,North,11,0.0,12.1,30,0.00,,CLR,0.00,VWS V14.00,2013-02-21 22:06:00,
2013-02-21 17:11:00,49.6,19.8,30.07,North,11,0.0,12.1,30,0.00,,CLR,0.00,VWS V14.00,2013-02-21 22:11:00,
2013-02-21 17:16:00,50.0,21.3,30.07,North,11,0.0,12.1,32,0.00,,CLR,0.00,VWS V14.00,2013-02-21 22:16:00,
2013-02-21 17:21:00,50.2,20.8,30.07,North,11,0.0,12.1,31,0.00,,CLR,0.00,VWS V14.00,2013-02-21 22:21:00,
2013-02-21 17:26:00,50.6,21.4,30.08,North,11,0.0,12.1,31,0.00,,CLR,0.00,VWS V14.00,2013-02-21 22:26:00,
2013-02-21 17:31:00,50.3,21.9,30.08,North,11,0.0,12.1,32,0.00,,CLR,0.00,VWS V14.00,2013-02-21 22:31:00,
2013-02-21 17:36:00,50.7,22.0,30.08,North,11,0.0,12.1,32,0.00,,CLR,0.00,VWS V14.00,2013-02-21 22:36:00,
2013-02-21 17:41:00,50.6,22.5,30.08,North,11,0.0,12.1,33,0.00,,CLR,0.00,VWS V14.00,2013-02-21 22:41:00,
2013-02-21 17:46:00,50.1,22.6,30.08,North,11,0.0,12.1,34,0.00,,CLR,0.00,VWS V14.00,2013-02-21 22:46:00,
2013-02-21 17:51:00,49.6,22.2,30.08,North,11,0.0,12.1,34,0.00,,CLR,0.00,VWS V14.00,2013-02-21 22:51:00,
2013-02-21 17:56:00,49.2,22.5,30.08,North,11,0.0,12.1,35,0.00,,CLR,0.00,VWS V14.00,2013-02-21 22:56:00,
2013-02-21 18:01:00,48.8,22.6,30.07,North,11,0.0,12.1,35,0.00,,CLR,0.00,VWS V14.00,2013-02-21 23:01:00,
2013-02-21 18:06:00,48.8,22.6,30.07,North,11,0.0,12.1,35,0.00,,CLR,0.00,VWS V14.00,2013-02-21 23:06:00,
2013-02-21 18:11:00,48.5,22.3,30.07,North,11,0.0,12.1,35,0.00,,CLR,0.00,VWS V14.00,2013-02-21 23:11:00,
2013-02-21 18:16:00,48.5,22.2,30.07,East,90,0.0,12.1,35,0.00,,CLR,0.00,VWS V14.00,2013-02-21 23:16:00,
2013-02-21 18:21:00,48.3,22.3,30.06,East,79,3.4,12.1,36,0.00,,CLR,0.00,VWS V14.00,2013-02-21 23:21:00,
2013-02-21 18:26:00,48.4,22.5,30.06,ESE,118,4.7,12.1,36,0.00,,CLR,0.00,VWS V14.00,2013-02-21 23:26:00,
2013-02-21 18:31:00,48.2,22.5,30.07,ENE,73,0.0,12.1,36,0.00,,CLR,0.00,VWS V14.00,2013-02-21 23:31:00,
2013-02-21 18:36:00,48.0,22.7,30.07,ENE,76,0.0,12.1,36,0.00,,CLR,0.00,VWS V14.00,2013-02-21 23:36:00,
2013-02-21 18:41:00,47.9,22.5,30.08,ENE,76,0.0,12.1,36,0.00,,CLR,0.00,VWS V14.00,2013-02-21 23:41:00,
2013-02-21 18:46:00,48.0,22.5,30.09,ENE,76,0.0,12.1,36,0.00,,CLR,0.00,VWS V14.00,2013-02-21 23:46:00,
2013-02-21 18:51:00,48.1,22.8,30.09,ENE,76,0.0,12.1,36,0.00,,CLR,0.00,VWS V14.00,2013-02-21 23:51:00,
2013-02-21 18:56:00,47.9,22.6,30.10,ENE,76,0.0,12.1,37,0.00,,CLR,0.00,VWS V14.00,2013-02-21 23:56:00,
2013-02-21 19:01:00,47.8,22.9,30.10,ENE,76,0.0,12.1,37,0.00,,CLR,0.00,VWS V14.00,2013-02-22 00:01:00,
2013-02-21 19:06:00,47.8,23.1,30.10,ENE,76,0.0,12.1,38,0.00,,CLR,0.00,VWS V14.00,2013-02-22 00:06:00,
2013-02-21 19:11:00,47.7,22.9,30.10,ENE,76,0.0,12.1,37,0.00,,CLR,0.00,VWS V14.00,2013-02-22 00:11:00,
2013-02-21 19:16:00,47.7,23.7,30.11,ENE,76,0.0,12.1,38,0.00,,CLR,0.00,VWS V14.00,2013-02-22 00:16:00,
2013-02-21 19:21:00,47.5,23.7,30.11,ENE,76,0.0,12.1,39,0.00,,CLR,0.00,VWS V14.00,2013-02-22 00:21:00,
2013-02-21 19:26:00,47.3,23.7,30.11,ENE,76,0.0,12.1,39,0.00,,CLR,0.00,VWS V14.00,2013-02-22 00:26:00,
2013-02-21 19:31:00,47.1,23.7,30.11,ENE,76,0.0,12.1,39,0.00,,CLR,0.00,VWS V14.00,2013-02-22 00:31:00,
2013-02-21 19:36:00,47.0,23.8,30.11,ENE,76,0.0,12.1,40,0.00,,CLR,0.00,VWS V14.00,2013-02-22 00:36:00,
2013-02-21 19:41:00,47.1,24.0,30.11,ENE,76,0.0,12.1,40,0.00,,CLR,0.00,VWS V14.00,2013-02-22 00:41:00,
2013-02-21 19:47:00,46.8,23.0,30.11,ENE,76,0.0,12.1,39,0.00,,CLR,0.00,VWS V14.00,2013-02-22 00:47:00,
2013-02-21 19:52:00,47.0,23.4,30.11,ENE,76,0.0,12.1,39,0.00,,CLR,0.00,VWS V14.00,2013-02-22 00:52:00,
2013-02-21 19:57:00,47.1,23.3,30.11,ESE,110,0.0,12.1,39,0.00,,CLR,0.00,VWS V14.00,2013-02-22 00:57:00,
2013-02-21 20:02:00,47.0,23.2,30.11,SE,124,0.0,12.1,39,0.00,,CLR,0.00,VWS V14.00,2013-02-22 01:02:00,
2013-02-21 20:07:00,47.0,23.0,30.11,East,96,0.0,12.1,38,0.00,,CLR,0.00,VWS V14.00,2013-02-22 01:07:00,
2013-02-21 20:12:00,47.1,23.4,30.11,East,96,0.0,12.1,39,0.00,,CLR,0.00,VWS V14.00,2013-02-22 01:12:00,
2013-02-21 20:17:00,47.0,23.4,30.11,ESE,118,0.0,12.1,39,0.00,,CLR,0.00,VWS V14.00,2013-02-22 01:17:00,
2013-02-21 20:22:00,46.8,23.4,30.11,East,87,0.0,12.1,39,0.00,,CLR,0.00,VWS V14.00,2013-02-22 01:22:00,
2013-02-21 20:27:00,46.8,23.5,30.11,SE,129,2.9,12.1,40,0.00,,CLR,0.00,VWS V14.00,2013-02-22 01:27:00,
2013-02-21 20:32:00,46.7,23.4,30.11,SE,128,0.0,12.1,40,0.00,,CLR,0.00,VWS V14.00,2013-02-22 01:32:00,
2013-02-21 20:37:00,46.7,23.6,30.10,SE,128,0.0,12.1,40,0.00,,CLR,0.00,VWS V14.00,2013-02-22 01:37:00,
2013-02-21 20:42:00,46.4,23.6,30.10,ESE,108,6.3,12.1,40,0.00,,CLR,0.00,VWS V14.00,2013-02-22 01:42:00,
2013-02-21 20:47:00,46.4,23.6,30.09,East,96,3.2,12.1,40,0.00,,CLR,0.00,VWS V14.00,2013-02-22 01:47:00,
2013-02-21 20:52:00,46.2,23.3,30.09,SE,132,5.8,12.1,40,0.00,,CLR,0.00,VWS V14.00,2013-02-22 01:52:00,
2013-02-21 20:57:00,46.3,23.6,30.10,SE,132,0.0,12.1,40,0.00,,CLR,0.00,VWS V14.00,2013-02-22 01:57:00,
2013-02-21 21:02:00,46.2,23.2,30.10,SE,132,4.3,12.1,40,0.00,,CLR,0.00,VWS V14.00,2013-02-22 02:02:00,
2013-02-21 21:07:00,46.4,23.3,30.11,SE,141,0.0,12.1,40,0.00,,CLR,0.00,VWS V14.00,2013-02-22 02:07:00,
2013-02-21 21:12:00,46.4,23.3,30.11,SE,139,3.5,12.1,40,0.00,,CLR,0.00,VWS V14.00,2013-02-22 02:12:00,
2013-02-21 21:17:00,46.2,23.2,30.12,East,91,0.0,12.1,40,0.00,,CLR,0.00,VWS V14.00,2013-02-22 02:17:00,
2013-02-21 21:22:00,46.2,23.2,30.12,ESE,107,0.0,12.1,40,0.00,,CLR,0.00,VWS V14.00,2013-02-22 02:22:00,
2013-02-21 21:27:00,46.1,23.3,30.13,ESE,107,0.0,12.1,40,0.00,,CLR,0.00,VWS V14.00,2013-02-22 02:27:00,
2013-02-21 21:32:00,46.2,23.3,30.13,SSE,165,3.1,12.1,40,0.00,,CLR,0.00,VWS V14.00,2013-02-22 02:32:00,
2013-02-21 21:37:00,46.1,23.4,30.13,ENE,66,8.1,12.1,40,0.00,,CLR,0.00,VWS V14.00,2013-02-22 02:37:00,
2013-02-21 21:42:00,45.9,23.4,30.14,East,90,0.0,12.1,41,0.00,,CLR,0.00,VWS V14.00,2013-02-22 02:42:00,
2013-02-21 21:47:00,45.9,23.7,30.14,SE,132,0.0,12.1,41,0.00,,CLR,0.00,VWS V14.00,2013-02-22 02:47:00,
2013-02-21 21:52:00,45.7,23.5,30.15,East,89,6.6,12.1,41,0.00,,CLR,0.00,VWS V14.00,2013-02-22 02:52:00,
2013-02-21 21:57:00,45.8,23.8,30.15,ENE,66,0.0,12.1,42,0.00,,CLR,0.00,VWS V14.00,2013-02-22 02:57:00,
2013-02-21 22:02:00,45.6,23.7,30.15,ESE,117,0.0,12.1,42,0.00,,CLR,0.00,VWS V14.00,2013-02-22 03:02:00,
2013-02-21 22:07:00,45.4,23.8,30.15,ENE,65,0.0,12.1,42,0.00,,CLR,0.00,VWS V14.00,2013-02-22 03:07:00,
2013-02-21 22:12:00,45.3,24.0,30.15,ENE,76,0.0,12.1,43,0.00,,CLR,0.00,VWS V14.00,2013-02-22 03:12:00,
2013-02-21 22:17:00,45.2,24.3,30.15,NNE,22,0.0,12.1,43,0.00,,CLR,0.00,VWS V14.00,2013-02-22 03:17:00,
2013-02-21 22:22:00,44.9,24.0,30.14,ENE,66,3.2,12.1,44,0.00,,CLR,0.00,VWS V14.00,2013-02-22 03:22:00,
2013-02-21 22:27:00,44.7,24.0,30.13,SE,131,5.3,12.1,44,0.00,,CLR,0.00,VWS V14.00,2013-02-22 03:27:00,
2013-02-21 22:32:00,44.7,24.2,30.13,NE,49,2.9,12.1,44,0.00,,CLR,0.00,VWS V14.00,2013-02-22 03:32:00,
2013-02-21 22:37:00,44.5,24.0,30.13,ESE,115,1.1,12.1,44,0.00,,CLR,0.00,VWS V14.00,2013-02-22 03:37:00,
2013-02-21 22:42:00,44.5,24.0,30.13,SSE,153,4.5,12.1,44,0.00,,CLR,0.00,VWS V14.00,2013-02-22 03:42:00,
2013-02-21 22:47:00,44.5,24.0,30.13,SE,135,6.9,12.1,44,0.00,,CLR,0.00,VWS V14.00,2013-02-22 03:47:00,
2013-02-21 22:52:00,44.4,24.1,30.14,ENE,59,4.7,12.1,44,0.00,,CLR,0.00,VWS V14.00,2013-02-22 03:52:00,
2013-02-21 22:57:00,44.5,24.2,30.13,ESE,118,0.0,12.1,44,0.00,,CLR,0.00,VWS V14.00,2013-02-22 03:57:00,
2013-02-21 23:02:00,44.4,24.1,30.13,SE,129,7.0,12.1,44,0.00,,CLR,0.00,VWS V14.00,2013-02-22 04:02:00,
2013-02-21 23:07:00,44.3,24.1,30.14,East,82,0.0,12.1,45,0.00,,CLR,0.00,VWS V14.00,2013-02-22 04:07:00,
2013-02-21 23:12:00,44.1,23.9,30.15,SSE,162,7.9,12.1,44,0.00,,CLR,0.00,VWS V14.00,2013-02-22 04:12:00,
2013-02-21 23:17:00,44.2,24.1,30.16,East,79,0.0,12.1,45,0.00,,CLR,0.00,VWS V14.00,2013-02-22 04:17:00,
2013-02-21 23:22:00,44.3,24.2,30.16,East,79,0.0,12.1,45,0.00,,CLR,0.00,VWS V14.00,2013-02-22 04:22:00,
2013-02-21 23:27:00,44.3,24.4,30.17,East,79,0.0,12.1,45,0.00,,CLR,0.00,VWS V14.00,2013-02-22 04:27:00,
2013-02-21 23:32:00,44.1,24.7,30.18,East,79,0.0,12.1,46,0.00,,CLR,0.00,VWS V14.00,2013-02-22 04:32:00,
2013-02-21 23:38:00,44.1,24.3,30.18,East,79,0.0,12.1,45,0.00,,CLR,0.00,VWS V14.00,2013-02-22 04:38:00,
2013-02-21 23:43:00,44.2,24.6,30.17,SE,145,0.0,12.1,46,0.00,,CLR,0.00,VWS V14.00,2013-02-22 04:43:00,
2013-02-21 23:48:00,44.0,24.6,30.17,SE,145,0.0,12.1,46,0.00,,CLR,0.00,VWS V14.00,2013-02-22 04:48:00,
2013-02-21 23:53:00,43.9,25.0,30.18,SE,145,0.0,12.1,47,0.00,,CLR,0.00,VWS V14.00,2013-02-22 04:53:00,
2013-02-21 23:58:00,43.7,24.9,30.19,SE,145,0.0,12.1,47,0.00,,CLR,0.00,VWS V14.00,2013-02-22 04:58:00,